Aérodrome :
LOGIN :

S'inscrire | Disclaimer

   EN    FR    IT 

 










Légende :    VFR   VFR Marginal   IFR   IFR Intensif   IFR Très Intensif
Visi : 
Plafond : 
>= 8 km
>= 3000ft
5 à 8 km
1000 à 3000 ft
1500m à 5 km
500 à 1000 ft
800 à 1500m
200 à 500 ft
< 800m
< 200 ft
Symboles :   Orages  Brouillard  Fortes neiges  Fortes précipitations  Vent > 20 kt
SIGMETs :   Divers  Orages  Givrage  Turbulence  Onde Orograph.  Cendres Volcan.







- Altitude de l'aérodrome : 485 ft
- Code IATA : QSA


LELL - Sabadell

DERNIER METAR :
  • 301030Z 20006KT 170V230 CAVOK 22/09 Q1026

METARs EXPIRÉS :
  • 301000Z 19005KT 110V250 CAVOK 21/09 Q1026
  • 300930Z VRB01KT CAVOK 18/10 Q1026
  • 300900Z VRB01KT CAVOK 17/11 Q1026
  • 300830Z 00000KT CAVOK 16/09 Q1026
  • 300800Z 00000KT CAVOK 14/08 Q1026

TAF TAF LELL
Valide du 30 à 09h jusqu'au 31 à 09h UTC


300800Z 3009/3109 22008KT 9999 FEW030 TX23/3014Z TN07/3106Z
TEMPO 3009/3011 VRB04KT
BECMG 3018/3020 VRB04KT
Pas de NOTAMs connus pour ce terrain.



MET'MAP, la Météo Aéronautique d'un coup d'oeil ! - Copyright ORBIFLY Décembre 2007 - Disclaimer

ORBIFLY MET'MAP TEAM :

Programmation & Développement : Alexandra Zaïnal
Conception & Développement : Baudouin d'Aumeries
Co-Programmation & Développement : Marc-Olivier Méhu
Soutien technique & logistique : Manuel Goepfert

Contact : metmap@orbifly.com




SOURCES & CREDITS :

   NOAA